sensor_id;sensor_type;location;lat;lon;timestamp;P1;durP1;ratioP1;P2;durP2;ratioP2
18376;SDS011;9315;52.624;13.544;2023-02-15T00:00:13;41.67;;;20.73;;
18376;SDS011;9315;52.624;13.544;2023-02-15T00:02:41;41.47;;;19.40;;
18376;SDS011;9315;52.624;13.544;2023-02-15T00:05:09;45.83;;;22.33;;
18376;SDS011;9315;52.624;13.544;2023-02-15T00:07:37;45.60;;;21.97;;
18376;SDS011;9315;52.624;13.544;2023-02-15T00:10:05;45.93;;;22.50;;
18376;SDS011;9315;52.624;13.544;2023-02-15T00:12:34;45.33;;;22.90;;
18376;SDS011;9315;52.624;13.544;2023-02-15T00:15:02;44.00;;;21.60;;
18376;SDS011;9315;52.624;13.544;2023-02-15T00:17:30;49.03;;;23.77;;
18376;SDS011;9315;52.624;13.544;2023-02-15T00:19:58;46.57;;;23.20;;
18376;SDS011;9315;52.624;13.544;2023-02-15T00:22:26;53.57;;;25.07;;
18376;SDS011;9315;52.624;13.544;2023-02-15T00:24:54;46.10;;;21.60;;
18376;SDS011;9315;52.624;13.544;2023-02-15T00:27:22;45.47;;;21.37;;
18376;SDS011;9315;52.624;13.544;2023-02-15T00:29:50;42.63;;;21.57;;
18376;SDS011;9315;52.624;13.544;2023-02-15T00:32:18;44.07;;;21.27;;
18376;SDS011;9315;52.624;13.544;2023-02-15T00:34:46;48.37;;;22.70;;
18376;SDS011;9315;52.624;13.544;2023-02-15T00:37:14;52.63;;;23.33;;
18376;SDS011;9315;52.624;13.544;2023-02-15T00:39:42;53.70;;;23.57;;
18376;SDS011;9315;52.624;13.544;2023-02-15T00:42:09;49.50;;;22.97;;
18376;SDS011;9315;52.624;13.544;2023-02-15T00:44:37;49.07;;;22.87;;
18376;SDS011;9315;52.624;13.544;2023-02-15T00:47:05;47.07;;;21.73;;
18376;SDS011;9315;52.624;13.544;2023-02-15T00:49:33;49.70;;;22.43;;
18376;SDS011;9315;52.624;13.544;2023-02-15T00:52:01;50.63;;;22.43;;
18376;SDS011;9315;52.624;13.544;2023-02-15T00:54:29;49.30;;;22.57;;
18376;SDS011;9315;52.624;13.544;2023-02-15T00:56:57;48.40;;;21.93;;
18376;SDS011;9315;52.624;13.544;2023-02-15T00:59:25;53.63;;;22.10;;
18376;SDS011;9315;52.624;13.544;2023-02-15T01:01:53;49.60;;;22.03;;
18376;SDS011;9315;52.624;13.544;2023-02-15T01:04:21;52.10;;;23.37;;
18376;SDS011;9315;52.624;13.544;2023-02-15T01:06:49;55.03;;;23.77;;
18376;SDS011;9315;52.624;13.544;2023-02-15T01:09:16;59.13;;;23.60;;
18376;SDS011;9315;52.624;13.544;2023-02-15T01:11:44;58.53;;;25.00;;
18376;SDS011;9315;52.624;13.544;2023-02-15T01:14:12;50.67;;;22.27;;
18376;SDS011;9315;52.624;13.544;2023-02-15T01:16:41;59.23;;;22.83;;
18376;SDS011;9315;52.624;13.544;2023-02-15T01:19:09;56.70;;;23.43;;
18376;SDS011;9315;52.624;13.544;2023-02-15T01:21:37;56.30;;;22.33;;
18376;SDS011;9315;52.624;13.544;2023-02-15T01:24:11;53.17;;;21.40;;
18376;SDS011;9315;52.624;13.544;2023-02-15T01:26:40;54.07;;;23.00;;
18376;SDS011;9315;52.624;13.544;2023-02-15T01:29:08;53.20;;;22.03;;
18376;SDS011;9315;52.624;13.544;2023-02-15T01:31:36;58.30;;;23.90;;
18376;SDS011;9315;52.624;13.544;2023-02-15T01:34:06;63.83;;;23.73;;
18376;SDS011;9315;52.624;13.544;2023-02-15T01:36:34;66.50;;;24.10;;
18376;SDS011;9315;52.624;13.544;2023-02-15T01:39:02;64.27;;;24.60;;
18376;SDS011;9315;52.624;13.544;2023-02-15T01:41:30;60.67;;;24.77;;
18376;SDS011;9315;52.624;13.544;2023-02-15T01:44:00;64.53;;;25.33;;
18376;SDS011;9315;52.624;13.544;2023-02-15T01:49:11;64.30;;;23.80;;
18376;SDS011;9315;52.624;13.544;2023-02-15T01:51:48;54.07;;;21.63;;
18376;SDS011;9315;52.624;13.544;2023-02-15T01:54:23;61.93;;;23.57;;
18376;SDS011;9315;52.624;13.544;2023-02-15T01:57:00;55.00;;;21.07;;
18376;SDS011;9315;52.624;13.544;2023-02-15T01:59:36;62.07;;;23.33;;
18376;SDS011;9315;52.624;13.544;2023-02-15T02:02:09;65.43;;;22.40;;
18376;SDS011;9315;52.624;13.544;2023-02-15T02:04:44;63.53;;;23.60;;
18376;SDS011;9315;52.624;13.544;2023-02-15T02:07:18;67.50;;;22.93;;
18376;SDS011;9315;52.624;13.544;2023-02-15T02:09:50;58.93;;;22.27;;
18376;SDS011;9315;52.624;13.544;2023-02-15T02:12:19;58.20;;;21.37;;
18376;SDS011;9315;52.624;13.544;2023-02-15T02:14:49;58.00;;;20.87;;
18376;SDS011;9315;52.624;13.544;2023-02-15T02:27:21;55.37;;;21.00;;
18376;SDS011;9315;52.624;13.544;2023-02-15T02:30:25;54.90;;;20.23;;
18376;SDS011;9315;52.624;13.544;2023-02-15T02:39:49;73.43;;;23.97;;
18376;SDS011;9315;52.624;13.544;2023-02-15T02:42:19;87.30;;;25.80;;
18376;SDS011;9315;52.624;13.544;2023-02-15T02:47:51;72.23;;;23.80;;
18376;SDS011;9315;52.624;13.544;2023-02-15T02:50:50;109.67;;;28.03;;
18376;SDS011;9315;52.624;13.544;2023-02-15T02:53:18;94.30;;;27.53;;
18376;SDS011;9315;52.624;13.544;2023-02-15T02:56:06;105.77;;;29.20;;
18376;SDS011;9315;52.624;13.544;2023-02-15T02:59:17;71.47;;;24.07;;
18376;SDS011;9315;52.624;13.544;2023-02-15T03:02:01;82.53;;;26.10;;
18376;SDS011;9315;52.624;13.544;2023-02-15T03:04:45;97.93;;;27.90;;
18376;SDS011;9315;52.624;13.544;2023-02-15T03:07:26;95.30;;;27.33;;
18376;SDS011;9315;52.624;13.544;2023-02-15T03:09:56;97.43;;;27.73;;
18376;SDS011;9315;52.624;13.544;2023-02-15T03:12:31;112.87;;;29.40;;
18376;SDS011;9315;52.624;13.544;2023-02-15T03:15:22;101.47;;;29.80;;
18376;SDS011;9315;52.624;13.544;2023-02-15T03:18:30;90.10;;;28.10;;
18376;SDS011;9315;52.624;13.544;2023-02-15T03:21:08;99.30;;;27.97;;
18376;SDS011;9315;52.624;13.544;2023-02-15T03:23:53;100.63;;;28.57;;
18376;SDS011;9315;52.624;13.544;2023-02-15T03:26:33;105.47;;;29.50;;
18376;SDS011;9315;52.624;13.544;2023-02-15T03:29:03;94.90;;;27.77;;
18376;SDS011;9315;52.624;13.544;2023-02-15T03:31:35;90.93;;;26.60;;
18376;SDS011;9315;52.624;13.544;2023-02-15T03:34:11;100.13;;;28.03;;
18376;SDS011;9315;52.624;13.544;2023-02-15T03:37:32;82.63;;;25.93;;
18376;SDS011;9315;52.624;13.544;2023-02-15T03:39:55;100.80;;;28.20;;
18376;SDS011;9315;52.624;13.544;2023-02-15T03:43:19;93.17;;;27.57;;
18376;SDS011;9315;52.624;13.544;2023-02-15T03:46:21;103.77;;;28.43;;
18376;SDS011;9315;52.624;13.544;2023-02-15T03:49:24;91.50;;;28.27;;
18376;SDS011;9315;52.624;13.544;2023-02-15T03:52:21;104.13;;;29.73;;
18376;SDS011;9315;52.624;13.544;2023-02-15T03:54:53;104.37;;;29.70;;
18376;SDS011;9315;52.624;13.544;2023-02-15T03:57:22;97.77;;;27.20;;
18376;SDS011;9315;52.624;13.544;2023-02-15T04:00:15;83.07;;;25.07;;
18376;SDS011;9315;52.624;13.544;2023-02-15T04:05:42;98.57;;;27.67;;
18376;SDS011;9315;52.624;13.544;2023-02-15T04:08:14;93.73;;;27.30;;
18376;SDS011;9315;52.624;13.544;2023-02-15T04:10:42;98.37;;;28.23;;
18376;SDS011;9315;52.624;13.544;2023-02-15T04:13:19;108.37;;;29.23;;
18376;SDS011;9315;52.624;13.544;2023-02-15T04:15:58;92.90;;;27.17;;
18376;SDS011;9315;52.624;13.544;2023-02-15T04:18:39;95.97;;;27.60;;
18376;SDS011;9315;52.624;13.544;2023-02-15T04:21:29;99.40;;;28.23;;
18376;SDS011;9315;52.624;13.544;2023-02-15T04:24:18;109.63;;;29.23;;
18376;SDS011;9315;52.624;13.544;2023-02-15T04:27:05;92.93;;;28.27;;
18376;SDS011;9315;52.624;13.544;2023-02-15T04:29:33;94.77;;;28.17;;
18376;SDS011;9315;52.624;13.544;2023-02-15T04:32:01;95.97;;;28.97;;
18376;SDS011;9315;52.624;13.544;2023-02-15T04:34:29;95.20;;;28.17;;
18376;SDS011;9315;52.624;13.544;2023-02-15T04:36:57;103.57;;;29.23;;
18376;SDS011;9315;52.624;13.544;2023-02-15T04:39:25;96.17;;;28.47;;
18376;SDS011;9315;52.624;13.544;2023-02-15T04:41:53;98.23;;;28.70;;
18376;SDS011;9315;52.624;13.544;2023-02-15T04:44:21;108.93;;;29.23;;
18376;SDS011;9315;52.624;13.544;2023-02-15T04:46:49;112.00;;;30.57;;
18376;SDS011;9315;52.624;13.544;2023-02-15T04:49:18;99.23;;;28.83;;
18376;SDS011;9315;52.624;13.544;2023-02-15T04:51:46;103.27;;;29.17;;
18376;SDS011;9315;52.624;13.544;2023-02-15T04:54:14;102.57;;;28.97;;
18376;SDS011;9315;52.624;13.544;2023-02-15T04:56:42;96.37;;;27.67;;
18376;SDS011;9315;52.624;13.544;2023-02-15T04:59:11;109.20;;;31.17;;
18376;SDS011;9315;52.624;13.544;2023-02-15T05:01:40;90.43;;;27.30;;
18376;SDS011;9315;52.624;13.544;2023-02-15T05:04:08;95.50;;;27.50;;
18376;SDS011;9315;52.624;13.544;2023-02-15T05:06:36;94.40;;;28.80;;
18376;SDS011;9315;52.624;13.544;2023-02-15T05:09:04;93.57;;;28.53;;
18376;SDS011;9315;52.624;13.544;2023-02-15T05:11:33;99.60;;;29.33;;
18376;SDS011;9315;52.624;13.544;2023-02-15T05:14:02;95.53;;;29.33;;
18376;SDS011;9315;52.624;13.544;2023-02-15T05:16:30;104.87;;;29.00;;
18376;SDS011;9315;52.624;13.544;2023-02-15T05:18:58;111.23;;;30.20;;
18376;SDS011;9315;52.624;13.544;2023-02-15T05:21:26;109.17;;;32.03;;
18376;SDS011;9315;52.624;13.544;2023-02-15T05:23:54;90.43;;;27.83;;
18376;SDS011;9315;52.624;13.544;2023-02-15T05:26:23;102.63;;;29.97;;
18376;SDS011;9315;52.624;13.544;2023-02-15T05:29:11;99.67;;;28.17;;
18376;SDS011;9315;52.624;13.544;2023-02-15T05:31:38;106.70;;;30.07;;
18376;SDS011;9315;52.624;13.544;2023-02-15T05:34:07;95.00;;;27.47;;
18376;SDS011;9315;52.624;13.544;2023-02-15T05:36:35;97.07;;;29.60;;
18376;SDS011;9315;52.624;13.544;2023-02-15T05:39:03;95.60;;;27.70;;
18376;SDS011;9315;52.624;13.544;2023-02-15T05:41:32;114.27;;;30.73;;
18376;SDS011;9315;52.624;13.544;2023-02-15T05:44:01;102.33;;;29.13;;
18376;SDS011;9315;52.624;13.544;2023-02-15T05:46:28;90.90;;;27.70;;
18376;SDS011;9315;52.624;13.544;2023-02-15T05:48:57;102.73;;;29.27;;
18376;SDS011;9315;52.624;13.544;2023-02-15T05:51:24;92.90;;;28.53;;
18376;SDS011;9315;52.624;13.544;2023-02-15T05:53:52;111.93;;;31.20;;
18376;SDS011;9315;52.624;13.544;2023-02-15T05:56:20;109.20;;;30.30;;
18376;SDS011;9315;52.624;13.544;2023-02-15T05:58:48;100.90;;;30.03;;
18376;SDS011;9315;52.624;13.544;2023-02-15T06:01:19;104.33;;;30.37;;
18376;SDS011;9315;52.624;13.544;2023-02-15T06:03:49;104.27;;;31.27;;
18376;SDS011;9315;52.624;13.544;2023-02-15T06:06:18;117.87;;;30.93;;
18376;SDS011;9315;52.624;13.544;2023-02-15T06:08:46;98.83;;;30.00;;
18376;SDS011;9315;52.624;13.544;2023-02-15T06:11:14;90.03;;;27.47;;
18376;SDS011;9315;52.624;13.544;2023-02-15T06:13:42;96.83;;;29.47;;
18376;SDS011;9315;52.624;13.544;2023-02-15T06:16:10;119.73;;;32.63;;
18376;SDS011;9315;52.624;13.544;2023-02-15T06:18:38;92.40;;;28.40;;
18376;SDS011;9315;52.624;13.544;2023-02-15T06:21:06;103.13;;;29.43;;
18376;SDS011;9315;52.624;13.544;2023-02-15T06:23:34;86.37;;;27.93;;
18376;SDS011;9315;52.624;13.544;2023-02-15T06:26:04;111.63;;;32.27;;
18376;SDS011;9315;52.624;13.544;2023-02-15T06:28:32;137.97;;;35.97;;
18376;SDS011;9315;52.624;13.544;2023-02-15T06:31:00;150.80;;;32.47;;
18376;SDS011;9315;52.624;13.544;2023-02-15T06:33:28;195.17;;;35.43;;
18376;SDS011;9315;52.624;13.544;2023-02-15T06:36:00;159.23;;;35.93;;
18376;SDS011;9315;52.624;13.544;2023-02-15T06:38:30;217.53;;;38.53;;
18376;SDS011;9315;52.624;13.544;2023-02-15T06:40:58;245.70;;;36.87;;
18376;SDS011;9315;52.624;13.544;2023-02-15T06:43:29;327.20;;;40.33;;
18376;SDS011;9315;52.624;13.544;2023-02-15T06:45:59;279.10;;;36.53;;
18376;SDS011;9315;52.624;13.544;2023-02-15T06:48:28;303.63;;;35.87;;
18376;SDS011;9315;52.624;13.544;2023-02-15T06:50:56;319.60;;;36.80;;
18376;SDS011;9315;52.624;13.544;2023-02-15T06:53:24;404.13;;;40.60;;
18376;SDS011;9315;52.624;13.544;2023-02-15T06:55:52;179.83;;;33.33;;
18376;SDS011;9315;52.624;13.544;2023-02-15T06:58:27;198.43;;;34.50;;
18376;SDS011;9315;52.624;13.544;2023-02-15T07:00:55;344.43;;;38.23;;
18376;SDS011;9315;52.624;13.544;2023-02-15T07:03:23;158.10;;;28.80;;
18376;SDS011;9315;52.624;13.544;2023-02-15T07:05:54;413.90;;;51.03;;
18376;SDS011;9315;52.624;13.544;2023-02-15T07:08:25;299.30;;;36.67;;
18376;SDS011;9315;52.624;13.544;2023-02-15T07:10:55;267.53;;;31.73;;
18376;SDS011;9315;52.624;13.544;2023-02-15T07:13:43;138.67;;;26.97;;
18376;SDS011;9315;52.624;13.544;2023-02-15T07:16:11;191.33;;;32.53;;
18376;SDS011;9315;52.624;13.544;2023-02-15T07:18:39;226.70;;;31.47;;
18376;SDS011;9315;52.624;13.544;2023-02-15T07:21:07;302.57;;;29.10;;
18376;SDS011;9315;52.624;13.544;2023-02-15T07:23:36;181.87;;;29.27;;
18376;SDS011;9315;52.624;13.544;2023-02-15T07:26:08;164.27;;;25.67;;
18376;SDS011;9315;52.624;13.544;2023-02-15T07:28:36;462.80;;;40.67;;
18376;SDS011;9315;52.624;13.544;2023-02-15T07:31:04;188.53;;;26.23;;
18376;SDS011;9315;52.624;13.544;2023-02-15T07:33:33;164.43;;;25.73;;
18376;SDS011;9315;52.624;13.544;2023-02-15T07:36:02;136.33;;;25.83;;
18376;SDS011;9315;52.624;13.544;2023-02-15T07:38:32;521.57;;;41.07;;
18376;SDS011;9315;52.624;13.544;2023-02-15T07:41:04;276.67;;;30.53;;
18376;SDS011;9315;52.624;13.544;2023-02-15T07:43:37;496.13;;;39.70;;
18376;SDS011;9315;52.624;13.544;2023-02-15T07:46:11;486.37;;;39.70;;
18376;SDS011;9315;52.624;13.544;2023-02-15T07:48:43;442.93;;;36.57;;
18376;SDS011;9315;52.624;13.544;2023-02-15T07:51:14;660.23;;;42.57;;
18376;SDS011;9315;52.624;13.544;2023-02-15T07:53:43;263.40;;;30.73;;
18376;SDS011;9315;52.624;13.544;2023-02-15T07:56:11;146.63;;;27.67;;
18376;SDS011;9315;52.624;13.544;2023-02-15T07:58:41;329.73;;;30.33;;
18376;SDS011;9315;52.624;13.544;2023-02-15T08:01:27;610.90;;;41.03;;
18376;SDS011;9315;52.624;13.544;2023-02-15T08:04:01;116.20;;;26.20;;
18376;SDS011;9315;52.624;13.544;2023-02-15T08:06:32;649.83;;;41.37;;
18376;SDS011;9315;52.624;13.544;2023-02-15T08:09:04;505.70;;;37.70;;
18376;SDS011;9315;52.624;13.544;2023-02-15T08:11:35;294.10;;;28.83;;
18376;SDS011;9315;52.624;13.544;2023-02-15T08:16:52;386.30;;;34.53;;
18376;SDS011;9315;52.624;13.544;2023-02-15T08:19:27;178.37;;;27.90;;
18376;SDS011;9315;52.624;13.544;2023-02-15T08:22:05;146.67;;;26.17;;
18376;SDS011;9315;52.624;13.544;2023-02-15T08:24:38;131.70;;;25.57;;
18376;SDS011;9315;52.624;13.544;2023-02-15T08:27:08;135.83;;;23.90;;
18376;SDS011;9315;52.624;13.544;2023-02-15T08:29:38;318.07;;;31.20;;
18376;SDS011;9315;52.624;13.544;2023-02-15T08:32:08;209.00;;;26.57;;
18376;SDS011;9315;52.624;13.544;2023-02-15T08:34:39;248.77;;;28.23;;
18376;SDS011;9315;52.624;13.544;2023-02-15T08:37:08;377.43;;;30.13;;
18376;SDS011;9315;52.624;13.544;2023-02-15T08:39:36;576.63;;;39.60;;
18376;SDS011;9315;52.624;13.544;2023-02-15T08:42:05;288.00;;;31.17;;
18376;SDS011;9315;52.624;13.544;2023-02-15T08:44:32;394.37;;;37.27;;
18376;SDS011;9315;52.624;13.544;2023-02-15T08:47:00;227.10;;;30.73;;
18376;SDS011;9315;52.624;13.544;2023-02-15T08:49:30;388.40;;;35.63;;
18376;SDS011;9315;52.624;13.544;2023-02-15T08:51:58;485.33;;;38.37;;
18376;SDS011;9315;52.624;13.544;2023-02-15T08:54:26;300.50;;;33.50;;
18376;SDS011;9315;52.624;13.544;2023-02-15T08:56:55;285.10;;;30.23;;
18376;SDS011;9315;52.624;13.544;2023-02-15T08:59:23;269.47;;;31.93;;
18376;SDS011;9315;52.624;13.544;2023-02-15T09:01:53;296.07;;;33.30;;
18376;SDS011;9315;52.624;13.544;2023-02-15T09:04:22;362.17;;;40.00;;
18376;SDS011;9315;52.624;13.544;2023-02-15T09:06:51;259.53;;;35.77;;
18376;SDS011;9315;52.624;13.544;2023-02-15T09:09:20;269.17;;;32.90;;
18376;SDS011;9315;52.624;13.544;2023-02-15T09:11:49;246.93;;;30.77;;
18376;SDS011;9315;52.624;13.544;2023-02-15T09:14:25;186.30;;;31.83;;
18376;SDS011;9315;52.624;13.544;2023-02-15T09:16:53;547.73;;;43.23;;
18376;SDS011;9315;52.624;13.544;2023-02-15T09:19:22;397.53;;;36.47;;
18376;SDS011;9315;52.624;13.544;2023-02-15T09:21:51;431.33;;;39.40;;
18376;SDS011;9315;52.624;13.544;2023-02-15T09:24:19;342.00;;;36.23;;
18376;SDS011;9315;52.624;13.544;2023-02-15T09:26:48;172.70;;;33.83;;
18376;SDS011;9315;52.624;13.544;2023-02-15T09:29:17;154.23;;;27.00;;
18376;SDS011;9315;52.624;13.544;2023-02-15T09:31:47;287.53;;;33.43;;
18376;SDS011;9315;52.624;13.544;2023-02-15T09:34:18;227.93;;;31.97;;
18376;SDS011;9315;52.624;13.544;2023-02-15T09:36:50;297.10;;;32.93;;
18376;SDS011;9315;52.624;13.544;2023-02-15T09:39:22;187.10;;;30.73;;
18376;SDS011;9315;52.624;13.544;2023-02-15T09:45:01;256.70;;;30.17;;
18376;SDS011;9315;52.624;13.544;2023-02-15T09:48:16;138.97;;;30.50;;
18376;SDS011;9315;52.624;13.544;2023-02-15T09:54:01;176.00;;;28.33;;
18376;SDS011;9315;52.624;13.544;2023-02-15T09:57:10;201.37;;;30.23;;
18376;SDS011;9315;52.624;13.544;2023-02-15T10:00:13;111.47;;;28.53;;
18376;SDS011;9315;52.624;13.544;2023-02-15T10:03:11;159.03;;;29.43;;
18376;SDS011;9315;52.624;13.544;2023-02-15T10:06:35;125.67;;;28.40;;
18376;SDS011;9315;52.624;13.544;2023-02-15T10:09:17;105.43;;;30.20;;
18376;SDS011;9315;52.624;13.544;2023-02-15T10:15:24;85.70;;;28.13;;
18376;SDS011;9315;52.624;13.544;2023-02-15T10:18:13;93.50;;;28.97;;
18376;SDS011;9315;52.624;13.544;2023-02-15T10:27:41;84.73;;;28.43;;
18376;SDS011;9315;52.624;13.544;2023-02-15T10:39:45;93.67;;;31.00;;
18376;SDS011;9315;52.624;13.544;2023-02-15T10:48:41;70.63;;;27.73;;
18376;SDS011;9315;52.624;13.544;2023-02-15T10:51:58;77.87;;;28.33;;
18376;SDS011;9315;52.624;13.544;2023-02-15T11:00:59;66.53;;;27.67;;
18376;SDS011;9315;52.624;13.544;2023-02-15T11:04:22;71.93;;;28.83;;
18376;SDS011;9315;52.624;13.544;2023-02-15T11:07:23;63.13;;;26.87;;
18376;SDS011;9315;52.624;13.544;2023-02-15T11:10:26;66.27;;;27.00;;
18376;SDS011;9315;52.624;13.544;2023-02-15T11:13:10;63.03;;;25.93;;
18376;SDS011;9315;52.624;13.544;2023-02-15T11:18:26;63.47;;;26.73;;
18376;SDS011;9315;52.624;13.544;2023-02-15T11:24:11;65.33;;;26.70;;
18376;SDS011;9315;52.624;13.544;2023-02-15T11:26:46;57.73;;;25.90;;
18376;SDS011;9315;52.624;13.544;2023-02-15T11:29:40;72.40;;;27.77;;
18376;SDS011;9315;52.624;13.544;2023-02-15T11:32:40;61.80;;;27.23;;
18376;SDS011;9315;52.624;13.544;2023-02-15T11:38:19;61.87;;;25.27;;
18376;SDS011;9315;52.624;13.544;2023-02-15T11:41:02;54.80;;;25.43;;
18376;SDS011;9315;52.624;13.544;2023-02-15T11:46:18;64.20;;;27.77;;
18376;SDS011;9315;52.624;13.544;2023-02-15T11:48:48;58.53;;;25.27;;
18376;SDS011;9315;52.624;13.544;2023-02-15T11:51:17;57.33;;;27.73;;
18376;SDS011;9315;52.624;13.544;2023-02-15T11:53:50;58.40;;;26.13;;
18376;SDS011;9315;52.624;13.544;2023-02-15T11:56:20;60.77;;;26.03;;
18376;SDS011;9315;52.624;13.544;2023-02-15T11:59:04;52.40;;;26.33;;
18376;SDS011;9315;52.624;13.544;2023-02-15T12:01:42;53.60;;;24.70;;
18376;SDS011;9315;52.624;13.544;2023-02-15T12:04:25;61.53;;;25.60;;
18376;SDS011;9315;52.624;13.544;2023-02-15T12:07:11;49.27;;;24.37;;
18376;SDS011;9315;52.624;13.544;2023-02-15T12:10:05;62.03;;;25.90;;
18376;SDS011;9315;52.624;13.544;2023-02-15T12:13:17;48.33;;;23.03;;
18376;SDS011;9315;52.624;13.544;2023-02-15T12:15:48;47.53;;;22.90;;
18376;SDS011;9315;52.624;13.544;2023-02-15T12:21:02;44.13;;;21.77;;
18376;SDS011;9315;52.624;13.544;2023-02-15T12:23:43;45.03;;;22.50;;
18376;SDS011;9315;52.624;13.544;2023-02-15T12:26:30;50.00;;;22.43;;
18376;SDS011;9315;52.624;13.544;2023-02-15T12:29:17;38.57;;;20.90;;
18376;SDS011;9315;52.624;13.544;2023-02-15T12:31:52;44.47;;;22.60;;
18376;SDS011;9315;52.624;13.544;2023-02-15T12:34:22;44.70;;;21.93;;
18376;SDS011;9315;52.624;13.544;2023-02-15T12:37:07;40.57;;;20.63;;
18376;SDS011;9315;52.624;13.544;2023-02-15T12:39:51;41.77;;;21.37;;
18376;SDS011;9315;52.624;13.544;2023-02-15T12:42:28;40.67;;;20.07;;
18376;SDS011;9315;52.624;13.544;2023-02-15T12:45:28;38.90;;;19.10;;
18376;SDS011;9315;52.624;13.544;2023-02-15T12:48:13;39.87;;;19.33;;
18376;SDS011;9315;52.624;13.544;2023-02-15T12:50:48;36.40;;;18.40;;
18376;SDS011;9315;52.624;13.544;2023-02-15T12:56:06;37.67;;;19.87;;
18376;SDS011;9315;52.624;13.544;2023-02-15T12:58:40;33.57;;;18.10;;
18376;SDS011;9315;52.624;13.544;2023-02-15T13:01:15;33.27;;;17.80;;
18376;SDS011;9315;52.624;13.544;2023-02-15T13:03:58;34.40;;;18.93;;
18376;SDS011;9315;52.624;13.544;2023-02-15T13:06:33;33.33;;;19.13;;
18376;SDS011;9315;52.624;13.544;2023-02-15T13:11:47;39.30;;;18.37;;
18376;SDS011;9315;52.624;13.544;2023-02-15T13:14:17;33.67;;;17.70;;
18376;SDS011;9315;52.624;13.544;2023-02-15T13:16:50;35.70;;;17.13;;
18376;SDS011;9315;52.624;13.544;2023-02-15T13:22:21;27.20;;;15.53;;
18376;SDS011;9315;52.624;13.544;2023-02-15T13:25:11;29.63;;;16.47;;
18376;SDS011;9315;52.624;13.544;2023-02-15T13:27:53;35.73;;;17.13;;
18376;SDS011;9315;52.624;13.544;2023-02-15T13:30:32;28.17;;;15.07;;
18376;SDS011;9315;52.624;13.544;2023-02-15T13:33:21;37.57;;;17.10;;
18376;SDS011;9315;52.624;13.544;2023-02-15T13:36:10;42.03;;;21.80;;
18376;SDS011;9315;52.624;13.544;2023-02-15T13:51:21;28.30;;;16.60;;
18376;SDS011;9315;52.624;13.544;2023-02-15T13:54:32;28.57;;;14.27;;
18376;SDS011;9315;52.624;13.544;2023-02-15T14:07:11;32.60;;;16.93;;
18376;SDS011;9315;52.624;13.544;2023-02-15T14:13:18;28.30;;;15.63;;
18376;SDS011;9315;52.624;13.544;2023-02-15T14:19:27;25.77;;;15.23;;
18376;SDS011;9315;52.624;13.544;2023-02-15T14:31:19;28.87;;;17.57;;
18376;SDS011;9315;52.624;13.544;2023-02-15T14:34:01;30.80;;;15.97;;
18376;SDS011;9315;52.624;13.544;2023-02-15T14:36:31;27.17;;;16.10;;
18376;SDS011;9315;52.624;13.544;2023-02-15T14:39:11;29.10;;;16.27;;
18376;SDS011;9315;52.624;13.544;2023-02-15T14:42:34;29.30;;;17.33;;
18376;SDS011;9315;52.624;13.544;2023-02-15T14:48:12;29.40;;;16.23;;
18376;SDS011;9315;52.624;13.544;2023-02-15T14:50:50;33.03;;;17.17;;
18376;SDS011;9315;52.624;13.544;2023-02-15T15:01:16;44.03;;;16.50;;
18376;SDS011;9315;52.624;13.544;2023-02-15T15:07:50;28.63;;;15.80;;
18376;SDS011;9315;52.624;13.544;2023-02-15T15:19:04;39.03;;;15.40;;
18376;SDS011;9315;52.624;13.544;2023-02-15T15:21:56;37.67;;;15.67;;
18376;SDS011;9315;52.624;13.544;2023-02-15T15:32:43;44.43;;;16.10;;
18376;SDS011;9315;52.624;13.544;2023-02-15T15:51:01;32.57;;;16.10;;
18376;SDS011;9315;52.624;13.544;2023-02-15T15:53:48;29.00;;;16.67;;
18376;SDS011;9315;52.624;13.544;2023-02-15T15:56:21;26.97;;;16.07;;
18376;SDS011;9315;52.624;13.544;2023-02-15T15:59:25;27.90;;;16.30;;
18376;SDS011;9315;52.624;13.544;2023-02-15T16:02:04;28.63;;;16.17;;
18376;SDS011;9315;52.624;13.544;2023-02-15T16:04:45;29.43;;;15.70;;
18376;SDS011;9315;52.624;13.544;2023-02-15T16:07:22;36.13;;;18.87;;
18376;SDS011;9315;52.624;13.544;2023-02-15T16:12:26;32.57;;;16.00;;
18376;SDS011;9315;52.624;13.544;2023-02-15T16:14:58;29.93;;;16.37;;
18376;SDS011;9315;52.624;13.544;2023-02-15T16:17:54;29.93;;;16.43;;
18376;SDS011;9315;52.624;13.544;2023-02-15T16:20:26;26.00;;;15.63;;
18376;SDS011;9315;52.624;13.544;2023-02-15T16:29:19;33.73;;;15.90;;
18376;SDS011;9315;52.624;13.544;2023-02-15T16:32:01;34.30;;;16.57;;
18376;SDS011;9315;52.624;13.544;2023-02-15T16:34:58;32.47;;;16.47;;
18376;SDS011;9315;52.624;13.544;2023-02-15T16:37:33;33.70;;;17.60;;
18376;SDS011;9315;52.624;13.544;2023-02-15T16:40:03;33.43;;;17.03;;
18376;SDS011;9315;52.624;13.544;2023-02-15T16:42:33;31.53;;;16.83;;
18376;SDS011;9315;52.624;13.544;2023-02-15T16:45:06;30.87;;;15.33;;
18376;SDS011;9315;52.624;13.544;2023-02-15T16:47:46;38.07;;;17.57;;
18376;SDS011;9315;52.624;13.544;2023-02-15T16:50:46;38.80;;;17.43;;
18376;SDS011;9315;52.624;13.544;2023-02-15T16:53:27;33.93;;;16.33;;
18376;SDS011;9315;52.624;13.544;2023-02-15T16:55:59;32.83;;;16.87;;
18376;SDS011;9315;52.624;13.544;2023-02-15T16:58:41;42.60;;;17.37;;
18376;SDS011;9315;52.624;13.544;2023-02-15T17:01:13;33.77;;;16.43;;
18376;SDS011;9315;52.624;13.544;2023-02-15T17:03:50;36.60;;;17.40;;
18376;SDS011;9315;52.624;13.544;2023-02-15T17:09:51;47.67;;;18.43;;
18376;SDS011;9315;52.624;13.544;2023-02-15T17:15:34;41.87;;;17.10;;
18376;SDS011;9315;52.624;13.544;2023-02-15T17:18:23;36.37;;;16.80;;
18376;SDS011;9315;52.624;13.544;2023-02-15T17:21:19;38.87;;;15.23;;
18376;SDS011;9315;52.624;13.544;2023-02-15T17:23:51;30.10;;;15.37;;
18376;SDS011;9315;52.624;13.544;2023-02-15T17:26:34;33.83;;;15.97;;
18376;SDS011;9315;52.624;13.544;2023-02-15T17:31:56;36.20;;;16.80;;
18376;SDS011;9315;52.624;13.544;2023-02-15T17:34:44;37.00;;;16.80;;
18376;SDS011;9315;52.624;13.544;2023-02-15T17:40:47;31.13;;;15.93;;
18376;SDS011;9315;52.624;13.544;2023-02-15T17:43:14;33.67;;;15.23;;
18376;SDS011;9315;52.624;13.544;2023-02-15T17:45:44;32.93;;;15.10;;
18376;SDS011;9315;52.624;13.544;2023-02-15T17:48:27;34.03;;;16.63;;
18376;SDS011;9315;52.624;13.544;2023-02-15T17:51:03;33.37;;;15.10;;
18376;SDS011;9315;52.624;13.544;2023-02-15T17:53:38;38.73;;;17.13;;
18376;SDS011;9315;52.624;13.544;2023-02-15T17:56:06;44.73;;;19.30;;
18376;SDS011;9315;52.624;13.544;2023-02-15T17:58:37;45.67;;;18.37;;
18376;SDS011;9315;52.624;13.544;2023-02-15T18:01:09;40.33;;;16.83;;
18376;SDS011;9315;52.624;13.544;2023-02-15T18:04:03;37.40;;;15.90;;
18376;SDS011;9315;52.624;13.544;2023-02-15T18:06:53;37.83;;;16.83;;
18376;SDS011;9315;52.624;13.544;2023-02-15T18:09:39;34.47;;;15.83;;
18376;SDS011;9315;52.624;13.544;2023-02-15T18:12:30;42.00;;;17.90;;
18376;SDS011;9315;52.624;13.544;2023-02-15T18:15:05;45.33;;;19.23;;
18376;SDS011;9315;52.624;13.544;2023-02-15T18:17:42;37.00;;;16.83;;
18376;SDS011;9315;52.624;13.544;2023-02-15T18:20:20;42.27;;;18.30;;
18376;SDS011;9315;52.624;13.544;2023-02-15T18:22:54;46.50;;;20.40;;